WetterOnline ( http://www.wetteronline.de )

Wetter aktuell Bergen aan Zee

Aktuelles Wetter: Amsterdam-Schiphol (-4m)

6-stündlich | Neueste Meldungen
Ortszeit Temperatur Wetter
Fr, 19.10. 8:00 7.7° C bedeckt
Fr, 19.10. 2:00 8.2° C bedeckt
Do, 18.10. 20:00 12.0° C bedeckt
Do, 18.10. 14:00 14.9° C bedeckt
Do, 18.10. 8:00 10.9° C wolkenlos
Do, 18.10. 2:00 11.7° C bedeckt
Mi, 17.10. 20:00 12.1° C bewölkt
Mi, 17.10. 14:00 17.8° C bedeckt
Ortszeit Temperatur Wetter
Fr, 19.10. 12:25 13° C leicht bewölkt
Fr, 19.10. 12:00 12.2° C wolkig
Fr, 19.10. 11:55 12° C leicht bewölkt
Fr, 19.10. 11:25 12° C leicht bewölkt
Fr, 19.10. 11:00 11.3° C wolkig
Fr, 19.10. 10:55 11° C leicht bewölkt
Fr, 19.10. 10:25 11° C leicht bewölkt
Fr, 19.10. 10:00 11.1° C wolkig
Fr, 19.10. 9:25 10° C leicht bewölkt
Fr, 19.10. 9:00 9.5° C wolkig
Ortszeit Relative Feuchte Sichtweite
Fr, 19.10. 8:00 90% 30 km
Fr, 19.10. 2:00 87% 35 km
Do, 18.10. 20:00 80% 40 km
Do, 18.10. 14:00 65% 35 km
Do, 18.10. 8:00 94% 16 km
Do, 18.10. 2:00 99% 12 km
Mi, 17.10. 20:00 89% 30 km
Mi, 17.10. 14:00 73% 23 km
Ortszeit Relative Feuchte Sichtweite
Fr, 19.10. 12:25 72% >10 km
Fr, 19.10. 12:00 78% 27 km
Fr, 19.10. 11:55 82% >10 km
Fr, 19.10. 11:25 77% >10 km
Fr, 19.10. 11:00 82% 26 km
Fr, 19.10. 10:55 82% >10 km
Fr, 19.10. 10:25 82% >10 km
Fr, 19.10. 10:00 83% 30 km
Fr, 19.10. 9:25 87% >10 km
Fr, 19.10. 9:00 87% 30 km
Ortszeit Niederschlagsmenge Niederschlagsart
Fr, 19.10. 8:00 0.0 l/m2 in 12 Std. -
Fr, 19.10. 2:00 0.0 l/m2 in 6 Std. -
Do, 18.10. 20:00 0.0 l/m2 in 12 Std. -
Do, 18.10. 14:00 0.0 l/m2 in 6 Std. -
Do, 18.10. 8:00 0.0 l/m2 in 12 Std. Regenschauer
Do, 18.10. 2:00 0.0 l/m2 in 6 Std. -
Mi, 17.10. 20:00 0.0 l/m2 in 12 Std. -
Mi, 17.10. 14:00 0.0 l/m2 in 6 Std. -
Ortszeit Niederschlagsmenge Niederschlagsart
Fr, 19.10. 12:25 keine Meldung -
Fr, 19.10. 12:00 0.0 l/m2 in 1 Std. -
Fr, 19.10. 11:55 keine Meldung -
Fr, 19.10. 11:25 keine Meldung -
Fr, 19.10. 11:00 keine Meldung -
Fr, 19.10. 10:55 keine Meldung -
Fr, 19.10. 10:25 keine Meldung -
Fr, 19.10. 10:00 0.0 l/m2 in 1 Std. -
Fr, 19.10. 9:25 keine Meldung -
Fr, 19.10. 9:00 0.0 l/m2 in 1 Std. -
Ortszeit Stärke Spitze Richtung
km/h Bft. km/h Grad Sektor
Fr, 19.10. 8:00 11 2 18 50° NO
Fr, 19.10. 2:00 11 2 18 70° O
Do, 18.10. 20:00 11 2 32 10° N
Do, 18.10. 14:00 18 3 32 40° NO
Do, 18.10. 8:00 7 2 22 330° NW
Do, 18.10. 2:00 4 1 11 350° N
Mi, 17.10. 20:00 7 2 25 310° NW
Mi, 17.10. 14:00 14 3 25 270° W
Ortszeit Stärke Spitze Richtung
km/h Bft. km/h Grad Sektor
Fr, 19.10. 12:25 7 2 - 60° NO
Fr, 19.10. 12:00 11 2 18 70° O
Fr, 19.10. 11:55 11 2 - 70° O
Fr, 19.10. 11:25 13 3 - 60° NO
Fr, 19.10. 11:00 18 3 25 70° O
Fr, 19.10. 10:55 17 3 - 70° O
Fr, 19.10. 10:25 13 3 - 60° NO
Fr, 19.10. 10:00 14 3 22 50° NO
Fr, 19.10. 9:25 15 3 - 60° NO
Fr, 19.10. 9:00 14 3 25 60° NO
Ortszeit Untergrenze Bedeckung Gattung
total tief tief mittel hoch
Fr, 19.10. 8:00 - 8/8 8/8 - - -
Fr, 19.10. 2:00 - 8/8 8/8 - - -
Do, 18.10. 20:00 - 8/8 8/8 - - -
Do, 18.10. 14:00 - 8/8 8/8 - - -
Do, 18.10. 8:00 - 0/8 0/8 - - -
Do, 18.10. 2:00 480 m 8/8 8/8 - - -
Mi, 17.10. 20:00 6900 m 8/8 5/8 - - -
Mi, 17.10. 14:00 660 m 8/8 8/8 - - -
Ortszeit Bedeckungsgrad in Achtel und Wolkenuntergrenze
Fr, 19.10. 12:25 1-2(960m)
Fr, 19.10. 12:00 8(7500m)
Fr, 19.10. 11:55 1-2(960m)
Fr, 19.10. 11:25 3-4(960m)
Fr, 19.10. 11:00 2(960m) 8(8100m)
Fr, 19.10. 10:55 1-2(960m)
Fr, 19.10. 10:25 1-2(960m)
Fr, 19.10. 10:00 8(8400m)
Fr, 19.10. 9:25 1-2(900m)
Fr, 19.10. 9:00 8(8700m)
Ortszeit Luftdruck NN (hPa) Tendenz (hPa in 3 Std.)
Fr, 19.10. 8:00 1026 - 0,1
Fr, 19.10. 2:00 1026 - 0,3
Do, 18.10. 20:00 1026 + 0,4
Do, 18.10. 14:00 1026 + 0,1
Do, 18.10. 8:00 1024 + 0,8
Do, 18.10. 2:00 1023 + 0,8
Mi, 17.10. 20:00 1021 + 1,0
Mi, 17.10. 14:00 1019 + 0,2
Ortszeit Luftdruck NN (hPa) Tendenz (hPa in 3 Std.)
Fr, 19.10. 12:25 1026 keine Meldung
Fr, 19.10. 12:00 1026 0,0
Fr, 19.10. 11:55 1026 keine Meldung
Fr, 19.10. 11:25 1026 keine Meldung
Fr, 19.10. 11:00 1026 0,0
Fr, 19.10. 10:55 1026 keine Meldung
Fr, 19.10. 10:25 1026 keine Meldung
Fr, 19.10. 10:00 1026 + 0,2
Fr, 19.10. 9:25 1026 keine Meldung
Fr, 19.10. 9:00 1026 + 0,2
Ortszeit Schneehöhe (cm)
Fr, 19.10. 8:00 -
Fr, 19.10. 2:00 -
Do, 18.10. 20:00 -
Do, 18.10. 14:00 -
Do, 18.10. 8:00 -
Do, 18.10. 2:00 -
Mi, 17.10. 20:00 -
Mi, 17.10. 14:00 -
Ortszeit Schneehöhe (cm)
Fr, 19.10. 12:25 -
Fr, 19.10. 12:00 -
Fr, 19.10. 11:55 -
Fr, 19.10. 11:25 -
Fr, 19.10. 11:00 -
Fr, 19.10. 10:55 -
Fr, 19.10. 10:25 -
Fr, 19.10. 10:00 -
Fr, 19.10. 9:25 -
Fr, 19.10. 9:00 -
Link zu dieser Seite / Seite empfehlen

Das Wetter in ...